Time;durP1;ratioP1;P1;durP2;ratioP2;P2;SDS_P1;SDS_P2;PMS_P1;PMS_P2;Temp;Humidity;BMP_temperature;BMP_pressure;BME280_temperature;BME280_humidity;BME280_pressure;Samples;Min_cycle;Max_cycle;Signal;HPM_P1;HPM_P2
2021/10/09 00:00:15;;;;;;;11.85;5.70;;;9.60;47.40;;;;;;5036564;28;20533;-36
2021/10/09 00:02:40;;;;;;;9.48;5.50;;;9.50;47.40;;;;;;5036440;28;20032;-38
2021/10/09 00:05:07;;;;;;;13.73;6.30;;;9.50;47.50;;;;;;5036213;28;20038;-34
2021/10/09 00:07:33;;;;;;;11.65;5.25;;;9.50;48.20;;;;;;5036616;28;20053;-39
2021/10/09 00:10:02;;;;;;;14.88;5.93;;;9.50;47.60;;;;;;5036294;28;20041;-37
2021/10/09 00:12:28;;;;;;;16.95;5.22;;;9.50;47.70;;;;;;5036492;28;20052;-34
2021/10/09 00:14:54;;;;;;;10.73;4.90;;;9.40;47.70;;;;;;5035443;28;20042;-34
2021/10/09 00:17:22;;;;;;;9.15;5.15;;;9.40;47.80;;;;;;5036219;28;20037;-36
2021/10/09 00:19:48;;;;;;;10.35;5.53;;;9.40;47.80;;;;;;5036429;28;20326;-34
2021/10/09 00:22:14;;;;;;;10.57;5.30;;;9.40;47.70;;;;;;5036186;28;20033;-38
2021/10/09 00:24:39;;;;;;;11.52;5.68;;;9.40;47.70;;;;;;5035938;28;20088;-34
2021/10/09 00:27:05;;;;;;;11.57;5.00;;;9.40;47.70;;;;;;5036143;28;20409;-34
2021/10/09 00:29:31;;;;;;;11.60;4.60;;;9.30;47.70;;;;;;5036292;28;20040;-35
2021/10/09 00:31:56;;;;;;;10.75;5.35;;;9.30;47.80;;;;;;5035850;28;20567;-33
2021/10/09 00:34:22;;;;;;;9.95;4.90;;;9.30;47.70;;;;;;5035662;28;20061;-39
2021/10/09 00:36:47;;;;;;;12.50;5.13;;;9.20;47.50;;;;;;5035885;28;20032;-34
2021/10/09 00:39:13;;;;;;;11.88;4.85;;;9.20;47.50;;;;;;5036120;28;20417;-34
2021/10/09 00:41:39;;;;;;;12.07;5.18;;;9.20;47.70;;;;;;5035749;28;20034;-34
2021/10/09 00:44:12;;;;;;;14.35;4.95;;;9.10;47.80;;;;;;5035412;28;20046;-34
2021/10/09 00:46:39;;;;;;;11.73;5.28;;;9.10;47.90;;;;;;5035833;28;20045;-37
2021/10/09 00:49:06;;;;;;;14.32;4.75;;;9.10;47.90;;;;;;5035631;28;20441;-34
2021/10/09 00:51:32;;;;;;;11.57;6.20;;;9.10;48.00;;;;;;5035621;28;20192;-36
2021/10/09 00:54:00;;;;;;;11.75;4.43;;;9.10;48.10;;;;;;5036076;28;20104;-33
2021/10/09 00:56:33;;;;;;;8.32;5.10;;;9.10;48.20;;;;;;5035413;28;20097;-34
2021/10/09 00:59:00;;;;;;;10.90;5.32;;;9.10;48.20;;;;;;5036167;28;20183;-39
2021/10/09 01:01:27;;;;;;;11.65;4.95;;;9.10;48.20;;;;;;5035651;28;20233;-38
2021/10/09 01:03:54;;;;;;;9.25;4.97;;;9.10;48.10;;;;;;5035769;28;20073;-35
2021/10/09 01:06:20;;;;;;;12.32;5.03;;;9.10;48.10;;;;;;5035111;28;20042;-35
2021/10/09 01:08:45;;;;;;;10.20;5.07;;;9.10;48.20;;;;;;5035810;28;20036;-34
2021/10/09 01:11:11;;;;;;;13.23;5.13;;;9.10;48.30;;;;;;5035106;28;20056;-35
2021/10/09 01:13:37;;;;;;;9.75;4.60;;;9.10;48.30;;;;;;5035921;28;20037;-38
2021/10/09 01:16:02;;;;;;;10.10;4.88;;;9.10;48.20;;;;;;5035057;28;20065;-39
2021/10/09 01:18:28;;;;;;;12.45;4.28;;;9.10;48.30;;;;;;5035622;28;20033;-39
2021/10/09 01:21:01;;;;;;;10.35;4.53;;;9.10;48.40;;;;;;5035130;28;20061;-39
2021/10/09 01:23:28;;;;;;;9.60;4.45;;;9.10;48.30;;;;;;5035576;28;20037;-34
2021/10/09 01:25:54;;;;;;;18.75;4.85;;;9.10;48.40;;;;;;5037140;28;20087;-37
2021/10/09 01:28:20;;;;;;;8.77;4.65;;;9.00;48.30;;;;;;5039369;28;20030;-40
2021/10/09 01:30:46;;;;;;;7.88;4.65;;;9.10;48.50;;;;;;5038335;28;20105;-34
2021/10/09 01:33:12;;;;;;;8.90;4.53;;;9.10;48.40;;;;;;5039518;28;20033;-34
2021/10/09 01:36:04;;;;;;;10.60;4.50;;;9.10;48.30;;;;;;5039629;28;20033;-34
2021/10/09 01:38:30;;;;;;;7.05;4.43;;;9.10;48.30;;;;;;5039480;28;20052;-34
2021/10/09 01:40:57;;;;;;;12.93;4.53;;;9.10;48.40;;;;;;5039239;28;20038;-37
2021/10/09 01:43:25;;;;;;;10.90;4.25;;;9.10;48.40;;;;;;5039371;28;20037;-39
2021/10/09 01:45:51;;;;;;;6.88;4.07;;;9.10;48.30;;;;;;5039306;28;20033;-35
2021/10/09 01:48:17;;;;;;;8.15;4.07;;;9.10;48.30;;;;;;5039228;28;20029;-34
2021/10/09 01:50:44;;;;;;;8.95;4.60;;;9.10;48.10;;;;;;5039342;28;20056;-38
2021/10/09 01:53:10;;;;;;;8.32;4.28;;;9.10;47.90;;;;;;5039120;28;20368;-39
2021/10/09 01:55:37;;;;;;;8.75;4.18;;;9.10;47.80;;;;;;5038867;28;20437;-35
2021/10/09 01:58:04;;;;;;;9.27;4.30;;;9.10;47.70;;;;;;5038946;28;20052;-35
2021/10/09 02:00:30;;;;;;;10.07;4.70;;;9.00;47.60;;;;;;5038982;28;20091;-38
2021/10/09 02:03:02;;;;;;;10.00;4.93;;;9.00;47.60;;;;;;5038752;28;20048;-35
2021/10/09 02:05:28;;;;;;;14.13;5.00;;;9.00;47.60;;;;;;5038767;28;20426;-39
2021/10/09 02:07:54;;;;;;;12.25;4.45;;;8.90;47.60;;;;;;5038829;28;20083;-38
2021/10/09 02:10:20;;;;;;;11.88;4.40;;;8.90;47.60;;;;;;5038835;28;20365;-38
2021/10/09 02:12:45;;;;;;;7.63;4.63;;;8.90;47.60;;;;;;5038520;28;20091;-38
2021/10/09 02:15:18;;;;;;;10.02;4.78;;;8.80;47.60;;;;;;5038778;28;20085;-44
2021/10/09 02:28:13;;;;;;;11.05;4.30;;;8.60;47.90;;;;;;5038426;28;20083;-38
2021/10/09 02:30:39;;;;;;;8.75;4.43;;;8.60;47.80;;;;;;5038335;28;20037;-38
2021/10/09 02:33:05;;;;;;;6.60;4.03;;;8.60;47.80;;;;;;5038531;28;20080;-38
2021/10/09 02:35:32;;;;;;;9.88;4.10;;;8.60;47.90;;;;;;5038147;28;20037;-38
2021/10/09 02:37:58;;;;;;;11.25;4.97;;;8.50;47.80;;;;;;5037010;28;20048;-35
2021/10/09 02:40:24;;;;;;;13.55;5.50;;;8.50;47.90;;;;;;5037954;28;20033;-37
2021/10/09 02:42:50;;;;;;;10.57;4.93;;;8.50;48.00;;;;;;5038181;28;20040;-34
2021/10/09 02:45:16;;;;;;;14.95;5.00;;;8.40;48.10;;;;;;5037940;28;20033;-34
2021/10/09 02:47:41;;;;;;;9.32;4.70;;;8.40;48.20;;;;;;5037889;28;20398;-34
2021/10/09 02:50:12;;;;;;;10.93;4.75;;;8.40;48.30;;;;;;5037867;28;20037;-38
2021/10/09 02:52:38;;;;;;;;;;;8.40;48.30;;;;;;5038461;28;20113;-35
2021/10/09 02:55:05;;;;;;;15.88;5.40;;;8.40;48.30;;;;;;5038045;28;19937;-38
2021/10/09 02:57:30;;;;;;;9.90;4.45;;;8.30;48.40;;;;;;5037650;28;20432;-39
2021/10/09 02:59:56;;;;;;;11.45;4.75;;;8.30;48.40;;;;;;5037823;28;20052;-38
2021/10/09 03:02:21;;;;;;;10.20;4.90;;;8.30;48.50;;;;;;5037495;28;20037;-38
2021/10/09 03:04:47;;;;;;;10.63;4.82;;;8.30;48.50;;;;;;5037590;28;20034;-40
2021/10/09 03:07:13;;;;;;;9.35;5.00;;;8.30;48.50;;;;;;5037735;28;20052;-38
2021/10/09 03:09:38;;;;;;;13.30;5.30;;;8.30;48.50;;;;;;5037534;28;20326;-34
2021/10/09 03:12:04;;;;;;;10.13;4.80;;;8.20;48.50;;;;;;5037404;28;20086;-38
2021/10/09 03:14:30;;;;;;;10.18;4.40;;;8.20;48.50;;;;;;5037771;28;20025;-39
2021/10/09 03:16:55;;;;;;;12.93;4.20;;;8.20;48.70;;;;;;5037206;28;20136;-34
2021/10/09 03:19:21;;;;;;;12.73;4.70;;;8.10;48.60;;;;;;5037564;28;20040;-35
2021/10/09 03:21:47;;;;;;;11.70;4.47;;;8.10;48.70;;;;;;5037065;28;20033;-35
2021/10/09 03:24:13;;;;;;;9.07;4.43;;;8.10;48.80;;;;;;5037040;28;20036;-35
2021/10/09 03:26:39;;;;;;;9.07;4.38;;;8.10;48.70;;;;;;5037071;28;20030;-38
2021/10/09 03:29:05;;;;;;;12.85;4.97;;;8.10;48.60;;;;;;5037312;28;20036;-38
2021/10/09 03:31:31;;;;;;;11.27;4.38;;;8.10;48.80;;;;;;5036961;28;20049;-38
2021/10/09 03:33:56;;;;;;;17.77;4.53;;;8.10;48.80;;;;;;5037574;28;20029;-34
2021/10/09 03:36:22;;;;;;;7.20;4.35;;;8.10;48.90;;;;;;5037036;28;20385;-35
2021/10/09 03:38:48;;;;;;;11.93;4.85;;;8.00;48.80;;;;;;5037555;28;20041;-39
2021/10/09 03:41:15;;;;;;;14.75;5.22;;;8.00;48.80;;;;;;5036858;28;20423;-35
2021/10/09 03:43:42;;;;;;;7.28;4.10;;;8.00;48.80;;;;;;5037389;28;20353;-35
2021/10/09 03:53:31;;;;;;;7.55;4.18;;;7.90;48.80;;;;;;5037183;28;20021;-39
2021/10/09 03:55:57;;;;;;;6.40;4.18;;;7.90;48.90;;;;;;5036175;28;20046;-35
2021/10/09 03:58:23;;;;;;;10.70;4.60;;;7.90;48.90;;;;;;5036872;28;20087;-38
2021/10/09 04:00:48;;;;;;;9.65;5.30;;;7.90;48.80;;;;;;5035402;28;20167;-39
2021/10/09 04:03:14;;;;;;;9.25;4.70;;;7.80;48.90;;;;;;5036503;28;20357;-39
2021/10/09 04:05:40;;;;;;;11.15;4.30;;;7.90;49.10;;;;;;5036549;28;20349;-36
2021/10/09 04:08:07;;;;;;;11.32;4.72;;;7.80;49.80;;;;;;5036303;28;20056;-35
2021/10/09 04:10:38;;;;;;;11.63;4.70;;;7.80;49.30;;;;;;5036595;28;20030;-39
2021/10/09 04:13:04;;;;;;;8.82;4.55;;;7.80;50.10;;;;;;5036383;28;20029;-34
2021/10/09 04:15:30;;;;;;;12.70;4.50;;;7.80;49.60;;;;;;5036408;28;20038;-38
2021/10/09 04:17:56;;;;;;;8.23;3.92;;;7.80;49.70;;;;;;5036230;28;20536;-39
2021/10/09 04:20:22;;;;;;;13.55;4.53;;;7.80;49.70;;;;;;5036164;28;20068;-37
2021/10/09 04:22:47;;;;;;;10.68;4.43;;;7.70;49.70;;;;;;5035931;28;20033;-38
2021/10/09 04:25:13;;;;;;;11.82;4.40;;;7.70;49.70;;;;;;5036038;28;20083;-34
2021/10/09 04:27:39;;;;;;;8.38;3.95;;;7.70;49.70;;;;;;5036116;28;20356;-34
2021/10/09 04:30:06;;;;;;;9.55;4.38;;;7.70;49.70;;;;;;5036012;28;20030;-39
2021/10/09 04:32:32;;;;;;;9.10;4.35;;;7.70;49.70;;;;;;5036050;28;20040;-35
2021/10/09 04:34:57;;;;;;;15.32;4.95;;;7.60;49.70;;;;;;5036133;28;20038;-35
2021/10/09 04:37:23;;;;;;;6.45;4.15;;;7.60;49.70;;;;;;5036266;28;20123;-38
2021/10/09 04:39:49;;;;;;;14.10;5.40;;;7.60;49.70;;;;;;5035797;28;20311;-37
2021/10/09 04:42:14;;;;;;;12.73;5.15;;;7.60;49.80;;;;;;5037863;28;20422;-34
2021/10/09 04:44:40;;;;;;;8.20;4.60;;;7.60;49.70;;;;;;5046641;28;20029;-38
2021/10/09 04:47:06;;;;;;;11.85;4.80;;;7.60;49.70;;;;;;5055354;28;20025;-38
2021/10/09 04:49:32;;;;;;;18.10;4.43;;;7.50;49.70;;;;;;5055082;28;20032;-38
2021/10/09 04:51:58;;;;;;;8.75;4.32;;;7.50;49.80;;;;;;5040241;28;20028;-38
2021/10/09 04:54:24;;;;;;;11.13;4.15;;;7.50;50.00;;;;;;5055416;28;20061;-38
2021/10/09 04:56:50;;;;;;;8.70;3.83;;;7.50;50.00;;;;;;5050622;28;20083;-38
2021/10/09 04:59:16;;;;;;;7.35;4.35;;;7.50;50.10;;;;;;5048106;28;20116;-37
2021/10/09 05:01:41;;;;;;;10.38;4.75;;;7.50;50.00;;;;;;5054878;28;20027;-35
2021/10/09 05:04:07;;;;;;;8.45;4.32;;;7.50;50.10;;;;;;5055054;28;20380;-38
2021/10/09 05:06:33;;;;;;;13.35;4.97;;;7.50;50.10;;;;;;5055096;28;20021;-39
2021/10/09 05:08:58;;;;;;;9.73;4.75;;;7.50;50.10;;;;;;5055690;28;20067;-34
2021/10/09 05:11:24;;;;;;;11.60;4.57;;;7.50;50.10;;;;;;5055190;28;20028;-35
2021/10/09 05:13:50;;;;;;;14.95;4.60;;;7.50;50.00;;;;;;5055718;28;20428;-37
2021/10/09 05:16:16;;;;;;;10.23;5.53;;;7.60;50.10;;;;;;5054693;28;20564;-34
2021/10/09 05:18:42;;;;;;;36.70;15.20;;;7.60;50.60;;;;;;5055596;28;20025;-32
2021/10/09 05:21:08;;;;;;;96.43;42.35;;;7.60;49.80;;;;;;5055215;28;20040;-38
2021/10/09 05:23:35;;;;;;;61.05;24.40;;;7.60;49.60;;;;;;5055397;28;20390;-33
2021/10/09 05:26:01;;;;;;;86.05;30.38;;;7.70;49.50;;;;;;5054971;28;20041;-34
2021/10/09 05:28:42;;;;;;;70.50;22.48;;;7.70;49.40;;;;;;5055572;28;20032;-38
2021/10/09 05:31:10;;;;;;;27.58;7.88;;;7.70;49.30;;;;;;5054985;28;20033;-38
2021/10/09 05:33:37;;;;;;;56.92;17.50;;;7.70;49.20;;;;;;5055524;28;20036;-34
2021/10/09 05:36:06;;;;;;;43.78;14.00;;;7.80;49.30;;;;;;5055034;28;20127;-33
2021/10/09 05:38:32;;;;;;;40.38;12.77;;;7.80;49.30;;;;;;5055245;28;20029;-34
2021/10/09 05:40:58;;;;;;;70.95;22.13;;;7.80;49.40;;;;;;5054795;28;20043;-37
2021/10/09 05:43:25;;;;;;;51.38;14.95;;;7.90;49.30;;;;;;5055276;28;20025;-38
2021/10/09 05:45:51;;;;;;;42.75;12.57;;;7.90;49.20;;;;;;5054671;28;20037;-34
2021/10/09 05:48:16;;;;;;;55.75;17.38;;;7.90;49.10;;;;;;5054994;28;20028;-38
2021/10/09 05:50:52;;;;;;;34.92;11.27;;;8.00;49.20;;;;;;5054806;28;20033;-34
2021/10/09 06:26:12;;;;;;;8.48;4.57;;;8.70;47.90;;;;;;5057940;28;20059;-35
2021/10/09 07:01:21;;;;;;;13.77;5.35;;;9.60;46.90;;;;;;5057132;28;20129;-38
2021/10/09 07:03:47;;;;;;;14.45;5.43;;;9.70;46.80;;;;;;5057775;28;20067;-35
2021/10/09 07:06:16;;;;;;;16.00;5.88;;;9.80;46.50;;;;;;5056849;28;20032;-38
2021/10/09 07:08:41;;;;;;;11.63;5.10;;;9.80;46.30;;;;;;5057548;28;20112;-39
2021/10/09 07:11:08;;;;;;;14.02;6.53;;;9.80;46.40;;;;;;5056463;28;20116;-38
2021/10/09 07:13:34;;;;;;;19.45;11.00;;;9.90;46.30;;;;;;5057702;28;20025;-38
2021/10/09 07:16:00;;;;;;;14.68;6.93;;;9.90;46.20;;;;;;5056911;28;20033;-39
2021/10/09 07:18:25;;;;;;;20.52;5.70;;;9.90;46.10;;;;;;5057390;28;20313;-38
2021/10/09 07:20:52;;;;;;;26.85;13.18;;;10.00;46.30;;;;;;5057262;28;20433;-37
2021/10/09 07:23:17;;;;;;;22.60;10.32;;;10.00;46.30;;;;;;5056515;28;20111;-39
2021/10/09 07:25:43;;;;;;;26.42;9.30;;;10.00;46.10;;;;;;5056691;28;20413;-35
2021/10/09 07:28:09;;;;;;;16.13;7.63;;;10.10;46.30;;;;;;5056991;28;20029;-39
2021/10/09 07:30:34;;;;;;;25.23;10.88;;;10.10;46.40;;;;;;5057210;28;20087;-38
2021/10/09 07:33:00;;;;;;;19.63;10.63;;;10.20;46.50;;;;;;5056898;28;20312;-35
2021/10/09 07:35:26;;;;;;;14.32;4.53;;;10.20;46.30;;;;;;5056852;28;20345;-35
2021/10/09 07:37:52;;;;;;;13.98;4.03;;;10.30;45.90;;;;;;5056554;28;20021;-35
2021/10/09 07:40:19;;;;;;;22.73;4.60;;;10.30;45.60;;;;;;5056500;28;20048;-39
2021/10/09 07:42:45;;;;;;;10.50;3.70;;;10.40;45.30;;;;;;5056501;28;20103;-33
2021/10/09 07:45:11;;;;;;;10.60;4.30;;;10.40;45.20;;;;;;5056021;28;20033;-34
2021/10/09 07:47:37;;;;;;;11.43;3.92;;;10.50;45.10;;;;;;5056389;28;20283;-35
2021/10/09 07:50:03;;;;;;;19.77;5.03;;;10.60;44.80;;;;;;5056321;28;20064;-33
2021/10/09 07:52:29;;;;;;;13.32;5.15;;;10.70;45.20;;;;;;5055316;28;20094;-34
2021/10/09 07:54:55;;;;;;;11.43;4.93;;;10.80;44.80;;;;;;5056403;28;20036;-39
2021/10/09 07:57:21;;;;;;;9.65;4.40;;;10.90;44.00;;;;;;5056204;28;20064;-39
2021/10/09 07:59:47;;;;;;;18.65;3.65;;;11.00;43.60;;;;;;5056433;28;20035;-38
2021/10/09 08:02:12;;;;;;;7.65;3.28;;;11.10;43.20;;;;;;5056228;28;20025;-33
2021/10/09 08:04:38;;;;;;;11.95;4.38;;;11.20;43.10;;;;;;5056253;28;20098;-39
2021/10/09 08:07:04;;;;;;;7.53;5.28;;;11.30;43.10;;;;;;5056362;28;20097;-39
2021/10/09 08:09:33;;;;;;;7.93;3.25;;;11.40;42.60;;;;;;5056488;28;20032;-39
2021/10/09 08:11:58;;;;;;;15.57;4.97;;;11.50;42.20;;;;;;5055983;28;20032;-40
2021/10/09 08:14:24;;;;;;;12.20;3.53;;;11.60;42.30;;;;;;5056344;28;20033;-39
2021/10/09 08:16:50;;;;;;;6.55;3.50;;;11.80;41.60;;;;;;5055875;28;20033;-40
2021/10/09 08:19:16;;;;;;;6.47;3.13;;;11.80;41.20;;;;;;5056002;28;20083;-34
2021/10/09 08:21:43;;;;;;;7.68;3.80;;;11.90;41.10;;;;;;5055853;28;20024;-35
2021/10/09 08:40:20;;;;;;;14.45;4.38;;;12.40;40.60;;;;;;5035662;28;20080;-36
2021/10/09 08:42:45;;;;;;;8.10;3.38;;;12.40;40.80;;;;;;5035553;28;20022;-34
2021/10/09 08:45:13;;;;;;;9.52;3.42;;;12.50;40.70;;;;;;5035257;28;20406;-34
2021/10/09 08:47:39;;;;;;;5.97;3.05;;;12.50;40.60;;;;;;5035731;28;20037;-39
2021/10/09 08:50:08;;;;;;;8.65;3.28;;;12.50;40.30;;;;;;5035256;28;20029;-39
2021/10/09 08:52:34;;;;;;;13.48;3.35;;;12.60;40.00;;;;;;5034311;28;20025;-35
2021/10/09 08:55:19;;;;;;;15.60;4.05;;;12.60;40.00;;;;;;5035544;28;20156;-35
2021/10/09 08:57:46;;;;;;;6.00;2.80;;;12.60;39.60;;;;;;5035215;28;20049;-35
2021/10/09 09:00:13;;;;;;;10.60;2.75;;;12.60;39.80;;;;;;5035409;28;20368;-35
2021/10/09 09:02:50;;;;;;;11.48;2.80;;;12.60;39.80;;;;;;5034990;28;20421;-36
2021/10/09 09:36:28;;;;;;;13.93;2.67;;;13.00;40.50;;;;;;5034766;28;20095;-35
2021/10/09 09:41:13;;;;;;;7.97;2.67;;;13.10;39.90;;;;;;5034692;28;20036;-34
2021/10/09 09:43:42;;;;;;;9.20;3.85;;;13.20;39.70;;;;;;5035231;28;20034;-39
2021/10/09 09:46:12;;;;;;;7.45;2.60;;;13.20;39.50;;;;;;5035129;28;20037;-35
2021/10/09 09:48:39;;;;;;;7.33;2.27;;;13.30;39.50;;;;;;5039313;28;20025;-37
2021/10/09 09:51:06;;;;;;;8.18;2.47;;;13.40;39.50;;;;;;5038900;28;20021;-34
2021/10/09 09:53:34;;;;;;;10.25;3.05;;;13.40;39.20;;;;;;5039217;28;20028;-39
2021/10/09 09:56:01;;;;;;;11.48;2.50;;;13.50;39.30;;;;;;5038527;28;20053;-35
2021/10/09 09:58:28;;;;;;;14.68;3.13;;;13.50;38.80;;;;;;5039231;28;20337;-35
2021/10/09 10:00:58;;;;;;;4.95;2.28;;;13.60;39.10;;;;;;5038604;28;20035;-35
2021/10/09 10:03:25;;;;;;;8.88;3.10;;;13.70;38.00;;;;;;5038609;28;20303;-39
2021/10/09 10:05:51;;;;;;;6.00;2.50;;;13.70;37.60;;;;;;5038182;28;20064;-39
2021/10/09 10:08:20;;;;;;;9.85;3.03;;;13.80;37.30;;;;;;5038488;28;20321;-35
2021/10/09 10:10:46;;;;;;;8.15;2.53;;;13.80;37.20;;;;;;5038393;28;20034;-35
2021/10/09 10:13:12;;;;;;;6.13;3.30;;;13.70;37.10;;;;;;5038760;28;20018;-40
2021/10/09 10:15:38;;;;;;;22.05;11.82;;;13.80;37.40;;;;;;5038602;28;20326;-36
2021/10/09 10:18:04;;;;;;;14.80;9.55;;;13.80;37.80;;;;;;5036607;28;20037;-35
2021/10/09 10:20:49;;;;;;;11.13;4.63;;;13.80;37.90;;;;;;5038399;28;20041;-34
2021/10/09 10:23:36;;;;;;;24.27;13.68;;;13.80;37.50;;;;;;5038256;28;20028;-37
2021/10/09 10:26:19;;;;;;;17.85;9.50;;;13.90;37.00;;;;;;5037828;28;20337;-34
2021/10/09 10:29:14;;;;;;;13.95;8.32;;;14.00;37.00;;;;;;5038099;28;20045;-34
2021/10/09 10:32:07;;;;;;;49.00;21.45;;;14.00;37.20;;;;;;5039680;28;20048;-36
2021/10/09 10:34:33;;;;;;;19.70;9.48;;;14.00;36.50;;;;;;5038288;28;20029;-39
2021/10/09 10:36:58;;;;;;;48.15;16.02;;;14.10;36.10;;;;;;5037674;28;20287;-39
2021/10/09 10:39:38;;;;;;;44.10;13.68;;;14.10;35.80;;;;;;5038109;28;20033;-36
2021/10/09 10:42:07;;;;;;;38.00;12.57;;;14.20;35.70;;;;;;5037901;28;20330;-36
2021/10/09 10:47:42;;;;;;;29.38;8.88;;;14.30;36.20;;;;;;5041283;28;20045;-36
2021/10/09 10:53:34;;;;;;;32.67;10.07;;;14.50;35.70;;;;;;5037289;28;20095;-34
2021/10/09 10:56:13;;;;;;;14.90;6.72;;;14.60;36.00;;;;;;5039784;28;20421;-35
2021/10/09 10:58:39;;;;;;;23.38;6.53;;;14.80;36.10;;;;;;5043371;28;20041;-39
2021/10/09 11:01:20;;;;;;;13.00;4.47;;;14.90;36.30;;;;;;5037134;28;20029;-35
2021/10/09 11:03:56;;;;;;;7.60;3.55;;;15.10;36.70;;;;;;5037805;28;20361;-34
2021/10/09 11:06:25;;;;;;;7.28;4.72;;;15.20;37.00;;;;;;5036981;28;20041;-34
2021/10/09 11:08:51;;;;;;;10.60;4.22;;;15.30;36.80;;;;;;5038010;28;20032;-34
2021/10/09 11:11:35;;;;;;;8.57;3.10;;;15.40;36.70;;;;;;5037097;28;20091;-34
2021/10/09 11:14:01;;;;;;;4.60;2.88;;;15.50;36.90;;;;;;5037468;28;20076;-39
2021/10/09 11:16:33;;;;;;;6.25;2.75;;;15.50;36.50;;;;;;5037424;28;20053;-34
2021/10/09 11:18:59;;;;;;;5.38;3.00;;;15.60;36.70;;;;;;5037096;28;20117;-39
2021/10/09 11:21:25;;;;;;;7.85;3.13;;;15.60;36.70;;;;;;5037010;28;20389;-35
2021/10/09 11:23:52;;;;;;;6.07;2.92;;;15.70;36.60;;;;;;5037478;28;20299;-37
2021/10/09 11:26:18;;;;;;;5.55;2.15;;;15.70;36.00;;;;;;5036897;28;20029;-36
2021/10/09 11:28:45;;;;;;;6.68;3.10;;;15.70;36.00;;;;;;5037466;28;20060;-34
2021/10/09 11:31:27;;;;;;;8.82;3.33;;;15.70;36.00;;;;;;5036870;28;20118;-34
2021/10/09 11:33:58;;;;;;;5.20;2.70;;;15.80;34.80;;;;;;5037200;28;20033;-34
2021/10/09 11:36:24;;;;;;;3.55;2.10;;;15.90;34.80;;;;;;5036769;28;20029;-34
2021/10/09 11:39:08;;;;;;;12.57;2.67;;;15.90;34.70;;;;;;5037300;28;20036;-34
2021/10/09 11:41:34;;;;;;;7.45;3.13;;;16.00;34.70;;;;;;5036492;28;20029;-38
2021/10/09 11:44:06;;;;;;;7.47;2.50;;;16.00;34.90;;;;;;5037001;28;20030;-35
2021/10/09 11:55:18;;;;;;;8.48;2.70;;;16.50;34.10;;;;;;5036698;28;20032;-34
2021/10/09 11:57:44;;;;;;;5.18;2.30;;;16.60;34.00;;;;;;5036060;28;20057;-35
2021/10/09 12:00:28;;;;;;;4.68;2.00;;;16.70;34.10;;;;;;5041749;28;20087;-36
2021/10/09 12:02:57;;;;;;;4.93;2.60;;;16.80;34.20;;;;;;5036676;28;20026;-39
2021/10/09 12:05:33;;;;;;;5.72;2.70;;;16.80;34.10;;;;;;5036393;28;20037;-35
2021/10/09 12:08:24;;;;;;;5.90;2.95;;;16.90;34.20;;;;;;5049721;28;20043;-40
2021/10/09 12:11:11;;;;;;;3.65;2.05;;;17.00;33.40;;;;;;5056067;28;20060;-39
2021/10/09 12:14:10;;;;;;;8.38;3.30;;;17.10;32.50;;;;;;5056613;28;20021;-39
2021/10/09 12:16:47;;;;;;;3.40;2.50;;;17.10;32.40;;;;;;5056014;28;20417;-34
2021/10/09 12:19:27;;;;;;;4.93;2.78;;;17.20;32.70;;;;;;5056078;28;20044;-34
2021/10/09 12:21:52;;;;;;;7.33;2.30;;;17.30;32.40;;;;;;5049543;28;20443;-35
2021/10/09 12:24:22;;;;;;;4.30;2.30;;;17.40;32.00;;;;;;5049768;28;20034;-33
2021/10/09 12:27:06;;;;;;;3.50;2.47;;;17.50;31.50;;;;;;5035715;28;20029;-33
2021/10/09 12:29:35;;;;;;;4.38;2.45;;;17.60;31.20;;;;;;5035993;28;20322;-33
2021/10/09 12:32:20;;;;;;;6.10;3.03;;;17.70;31.10;;;;;;5035777;28;20028;-34
2021/10/09 12:34:47;;;;;;;3.42;2.28;;;17.80;30.60;;;;;;5035754;28;20502;-39
2021/10/09 12:37:27;;;;;;;5.85;2.70;;;17.80;30.50;;;;;;5035808;28;20033;-34
2021/10/09 12:40:09;;;;;;;4.05;2.60;;;17.90;30.70;;;;;;5034590;28;20143;-34
2021/10/09 12:42:35;;;;;;;5.50;2.72;;;17.90;30.80;;;;;;5035913;28;20066;-34
2021/10/09 12:45:01;;;;;;;5.22;2.55;;;17.90;30.70;;;;;;5035619;28;20421;-34
2021/10/09 12:47:27;;;;;;;6.68;3.00;;;17.90;30.30;;;;;;5035651;28;20253;-34
2021/10/09 12:49:53;;;;;;;7.93;2.60;;;17.90;29.90;;;;;;5035892;28;20036;-34
2021/10/09 12:52:18;;;;;;;10.60;4.03;;;17.80;29.60;;;;;;5035317;28;20318;-35
2021/10/09 12:54:44;;;;;;;11.38;3.75;;;17.70;29.10;;;;;;5035769;28;20036;-39
2021/10/09 12:57:10;;;;;;;12.38;4.10;;;17.50;28.80;;;;;;5035299;28;20115;-35
2021/10/09 12:59:36;;;;;;;30.70;10.23;;;17.40;28.70;;;;;;5035439;28;20029;-35
2021/10/09 13:02:03;;;;;;;39.08;13.82;;;17.30;29.00;;;;;;5035286;28;20029;-35
2021/10/09 13:04:28;;;;;;;21.38;7.55;;;17.20;29.20;;;;;;5035156;28;20034;-34
2021/10/09 13:06:54;;;;;;;15.80;6.45;;;17.00;29.60;;;;;;5035285;28;20086;-34
2021/10/09 13:09:20;;;;;;;16.10;6.32;;;16.90;29.90;;;;;;5034937;28;20330;-33
2021/10/09 13:12:01;;;;;;;10.63;4.47;;;16.70;30.00;;;;;;5035040;28;20115;-34
2021/10/09 13:14:26;;;;;;;14.73;5.63;;;16.60;30.10;;;;;;5035391;28;20365;-33
2021/10/09 13:16:52;;;;;;;8.23;3.85;;;16.50;30.40;;;;;;5035094;28;20060;-34
2021/10/09 13:19:17;;;;;;;12.85;4.28;;;16.40;30.70;;;;;;5035294;28;20044;-36
2021/10/09 13:21:43;;;;;;;16.85;8.27;;;16.30;31.00;;;;;;5034315;28;20028;-36
2021/10/09 13:24:09;;;;;;;23.80;7.53;;;16.20;31.40;;;;;;5035176;28;20045;-39
2021/10/09 13:26:35;;;;;;;11.73;5.38;;;16.10;31.70;;;;;;5035176;28;20025;-39
2021/10/09 13:29:02;;;;;;;15.07;6.30;;;16.00;31.70;;;;;;5035418;28;20116;-35
2021/10/09 13:31:28;;;;;;;8.88;4.63;;;15.90;31.80;;;;;;5034957;28;20148;-39
2021/10/09 13:33:54;;;;;;;20.02;5.25;;;15.80;31.70;;;;;;5035092;28;20064;-39
2021/10/09 13:36:24;;;;;;;11.43;4.18;;;15.70;31.70;;;;;;5034325;28;20088;-39
2021/10/09 13:38:50;;;;;;;11.43;4.10;;;15.60;31.20;;;;;;5035643;28;20428;-35
2021/10/09 13:41:16;;;;;;;12.25;3.42;;;15.50;31.40;;;;;;5034673;28;20111;-35
2021/10/09 13:43:42;;;;;;;7.32;3.03;;;15.40;31.60;;;;;;5035393;28;20401;-34
2021/10/09 13:46:08;;;;;;;9.50;4.30;;;15.30;31.60;;;;;;5034315;28;20038;-34
2021/10/09 13:48:33;;;;;;;6.85;3.28;;;15.30;31.90;;;;;;5035382;28;20056;-39
2021/10/09 13:51:00;;;;;;;12.57;3.85;;;15.20;32.10;;;;;;5034797;28;20029;-35
2021/10/09 13:53:25;;;;;;;7.03;3.78;;;15.10;32.40;;;;;;5036083;28;20034;-35
2021/10/09 13:55:52;;;;;;;17.40;4.45;;;15.00;32.70;;;;;;5054494;28;20318;-34
2021/10/09 13:58:18;;;;;;;11.38;3.97;;;15.00;33.00;;;;;;5054941;28;20028;-37
2021/10/09 14:00:45;;;;;;;8.07;4.55;;;14.90;33.00;;;;;;5044287;28;20377;-38
2021/10/09 14:03:12;;;;;;;32.15;8.63;;;14.90;33.30;;;;;;5034349;28;20104;-38
2021/10/09 14:05:38;;;;;;;18.48;5.75;;;14.80;33.30;;;;;;5032928;28;20112;-34
2021/10/09 14:08:05;;;;;;;18.60;5.80;;;14.70;33.20;;;;;;5034038;28;20109;-40
2021/10/09 14:10:31;;;;;;;17.25;5.32;;;14.70;33.70;;;;;;5035002;28;20033;-36
2021/10/09 14:12:58;;;;;;;14.43;4.05;;;14.60;33.80;;;;;;5034968;28;20445;-34
2021/10/09 14:15:24;;;;;;;9.77;3.70;;;14.60;33.90;;;;;;5034721;28;20064;-38
2021/10/09 14:17:51;;;;;;;8.07;3.63;;;14.50;33.70;;;;;;5033045;28;20030;-40
2021/10/09 14:20:16;;;;;;;9.55;4.28;;;14.40;33.70;;;;;;5034066;28;20033;-35
2021/10/09 14:22:42;;;;;;;13.13;4.65;;;14.40;33.60;;;;;;5034850;28;20036;-35
2021/10/09 14:25:10;;;;;;;9.70;4.25;;;14.30;33.70;;;;;;5034393;28;20341;-35
2021/10/09 14:27:36;;;;;;;16.60;5.47;;;14.20;33.90;;;;;;5034620;28;20033;-35
2021/10/09 14:30:04;;;;;;;13.30;5.20;;;14.20;34.00;;;;;;5034741;28;20025;-36
2021/10/09 14:32:29;;;;;;;14.27;4.45;;;14.10;34.00;;;;;;5034508;28;20477;-35
2021/10/09 14:34:55;;;;;;;11.02;4.63;;;14.10;34.00;;;;;;5038260;28;20116;-36
2021/10/09 14:37:21;;;;;;;11.00;5.45;;;14.10;34.10;;;;;;5038145;28;20025;-36
2021/10/09 14:39:46;;;;;;;22.05;6.85;;;14.00;34.20;;;;;;5038224;28;20037;-35
2021/10/09 14:42:13;;;;;;;14.27;6.50;;;13.90;34.40;;;;;;5037807;28;20025;-39
2021/10/09 14:44:39;;;;;;;28.17;9.75;;;13.90;34.70;;;;;;5037704;28;20038;-40
2021/10/09 14:49:41;;;;;;;18.92;8.10;;;13.90;35.20;;;;;;5037865;28;20102;-34
2021/10/09 15:19:20;;;;;;;6.22;3.22;;;13.30;36.80;;;;;;5039670;28;20053;-35
2021/10/09 15:21:45;;;;;;;8.85;3.47;;;13.30;36.90;;;;;;5037073;28;20148;-36
2021/10/09 15:24:11;;;;;;;8.80;4.38;;;13.30;37.40;;;;;;5037093;28;20083;-41
2021/10/09 15:26:37;;;;;;;12.40;6.13;;;13.20;37.80;;;;;;5036842;28;20104;-35
2021/10/09 15:29:05;;;;;;;12.20;4.65;;;13.20;38.40;;;;;;5037346;28;20025;-40
2021/10/09 15:31:30;;;;;;;9.13;4.07;;;13.20;39.10;;;;;;5036737;28;20029;-38
2021/10/09 15:33:56;;;;;;;11.68;5.75;;;13.10;39.40;;;;;;5037531;28;20021;-38
2021/10/09 15:36:21;;;;;;;11.32;5.32;;;13.10;39.80;;;;;;5036901;28;20061;-39
2021/10/09 15:38:47;;;;;;;11.40;5.85;;;13.00;39.80;;;;;;5037478;28;20329;-39
2021/10/09 15:41:13;;;;;;;18.00;9.57;;;13.00;39.70;;;;;;5036577;28;20101;-38
2021/10/09 15:43:38;;;;;;;18.42;9.35;;;13.00;39.70;;;;;;5036879;28;20033;-35
2021/10/09 15:46:04;;;;;;;16.48;8.40;;;12.90;39.70;;;;;;5036520;28;20033;-35